Time;durP1;ratioP1;P1;durP2;ratioP2;P2;SDS_P1;SDS_P2;PMS_P1;PMS_P2;Temp;Humidity;BMP_temperature;BMP_pressure;BME280_temperature;BME280_humidity;BME280_pressure;Samples;Min_cycle;Max_cycle;Signal;HPM_P1;HPM_P2
2022/04/30 00:02:10;;;;;;;12.05;5.88;;;5.60;99.90;;;;;;4942434;29;20091;-77
2022/04/30 00:04:37;;;;;;;10.90;6.30;;;5.60;99.90;;;;;;4952687;28;20042;-77
2022/04/30 00:07:03;;;;;;;10.38;5.68;;;5.50;99.90;;;;;;4951893;29;20071;-77
2022/04/30 00:09:30;;;;;;;15.00;7.78;;;5.50;99.90;;;;;;4942199;29;20044;-77
2022/04/30 00:11:56;;;;;;;14.10;6.60;;;5.60;99.90;;;;;;4942992;29;20058;-76
2022/04/30 00:14:22;;;;;;;12.73;7.20;;;5.60;99.90;;;;;;4952669;28;20437;-76
2022/04/30 00:16:48;;;;;;;13.18;6.20;;;5.60;99.90;;;;;;4952462;29;20054;-77
2022/04/30 00:19:13;;;;;;;10.95;7.15;;;5.60;99.90;;;;;;4950492;29;20042;-77
2022/04/30 00:21:39;;;;;;;13.32;6.65;;;5.60;99.90;;;;;;4939313;29;20039;-77
2022/04/30 00:24:04;;;;;;;12.80;7.10;;;5.60;99.90;;;;;;4936414;29;20079;-77
2022/04/30 00:26:31;;;;;;;11.55;6.68;;;5.60;99.90;;;;;;4932871;29;20090;-76
2022/04/30 00:28:56;;;;;;;11.70;6.80;;;5.60;99.90;;;;;;4924817;29;20039;-76
2022/04/30 00:31:22;;;;;;;14.82;7.45;;;5.60;99.90;;;;;;4941164;29;20046;-77
2022/04/30 00:33:48;;;;;;;14.63;7.72;;;5.60;99.90;;;;;;4948108;28;20043;-77
2022/04/30 00:36:14;;;;;;;16.10;9.00;;;5.60;99.90;;;;;;4952019;29;20051;-77
2022/04/30 00:38:41;;;;;;;16.08;7.22;;;5.60;99.90;;;;;;4945613;29;20075;-77
2022/04/30 00:41:08;;;;;;;14.20;7.07;;;5.60;99.90;;;;;;4941906;29;20064;-77
2022/04/30 00:43:51;;;;;;;11.45;8.18;;;5.60;99.90;;;;;;4938919;29;20411;-77
2022/04/30 00:46:23;;;;;;;12.80;7.97;;;5.60;99.90;;;;;;4933084;29;20118;-77
2022/04/30 00:48:50;;;;;;;17.33;8.43;;;5.50;99.90;;;;;;4932857;29;20083;-77
2022/04/30 00:51:18;;;;;;;16.38;8.75;;;5.50;99.90;;;;;;4932457;29;20031;-77
2022/04/30 00:53:46;;;;;;;13.80;7.07;;;5.50;99.90;;;;;;4928256;29;20090;-77
2022/04/30 00:56:13;;;;;;;16.20;8.35;;;5.50;99.90;;;;;;4939994;29;20035;-77
2022/04/30 00:58:45;;;;;;;14.48;8.30;;;5.50;99.90;;;;;;4917377;29;20071;-77
2022/04/30 01:01:11;;;;;;;12.38;7.15;;;5.60;99.90;;;;;;4940161;29;20047;-77
2022/04/30 01:03:37;;;;;;;18.38;8.15;;;5.50;99.90;;;;;;4940804;28;20070;-77
2022/04/30 01:06:04;;;;;;;16.67;8.77;;;5.60;99.90;;;;;;4949593;29;20517;-77
2022/04/30 01:08:30;;;;;;;13.93;9.38;;;5.60;99.90;;;;;;4950233;29;20086;-77
2022/04/30 01:10:56;;;;;;;13.13;8.00;;;5.50;99.90;;;;;;4946947;29;20105;-77
2022/04/30 01:13:22;;;;;;;19.88;10.13;;;5.50;99.90;;;;;;4940750;29;20407;-77
2022/04/30 01:15:50;;;;;;;15.43;7.22;;;5.60;99.90;;;;;;4931793;29;20039;-77
2022/04/30 01:18:16;;;;;;;13.35;7.20;;;5.60;99.90;;;;;;4942575;29;20035;-77
2022/04/30 01:20:47;;;;;;;12.13;7.13;;;5.60;99.90;;;;;;4942962;29;20045;-77
2022/04/30 01:23:13;;;;;;;11.93;8.40;;;5.60;99.90;;;;;;4936607;28;20130;-77
2022/04/30 01:25:42;;;;;;;13.50;8.05;;;5.60;99.90;;;;;;4940726;29;20099;-77
2022/04/30 01:28:10;;;;;;;11.20;7.63;;;5.60;99.90;;;;;;4932881;29;20052;-77
2022/04/30 01:30:36;;;;;;;15.32;7.80;;;5.50;99.90;;;;;;4937557;29;20498;-77
2022/04/30 01:38:30;;;;;;;16.33;8.35;;;5.50;99.90;;;;;;4944628;29;20410;-77
2022/04/30 01:40:55;;;;;;;17.70;8.10;;;5.50;99.90;;;;;;4943351;29;20043;-77
2022/04/30 01:43:22;;;;;;;17.13;9.10;;;5.60;99.90;;;;;;4947770;28;20047;-77
2022/04/30 01:45:48;;;;;;;18.13;8.43;;;5.50;99.90;;;;;;4939277;29;20125;-77
2022/04/30 01:48:14;;;;;;;15.27;8.77;;;5.60;99.90;;;;;;4951471;29;20521;-77
2022/04/30 01:50:43;;;;;;;17.25;7.45;;;5.60;99.90;;;;;;4939962;29;20058;-77
2022/04/30 01:53:10;;;;;;;13.60;8.27;;;5.60;99.90;;;;;;4938328;29;20505;-77
2022/04/30 01:55:37;;;;;;;14.35;8.30;;;5.60;99.90;;;;;;4955198;29;20046;-77
2022/04/30 01:58:03;;;;;;;16.70;8.27;;;5.60;99.90;;;;;;4951962;29;20409;-77
2022/04/30 02:00:30;;;;;;;13.23;7.80;;;5.60;99.90;;;;;;4942567;29;20122;-77
2022/04/30 02:03:00;;;;;;;14.55;8.02;;;5.60;99.90;;;;;;4947523;28;20398;-77
2022/04/30 02:05:26;;;;;;;18.15;8.88;;;5.60;99.90;;;;;;4941440;29;20075;-77
2022/04/30 02:08:00;;;;;;;13.68;7.63;;;5.60;99.90;;;;;;4944542;29;20556;-77
2022/04/30 02:10:26;;;;;;;13.95;7.50;;;5.60;99.90;;;;;;4949092;29;20047;-77
2022/04/30 02:12:53;;;;;;;17.38;8.00;;;5.60;99.90;;;;;;4947024;28;20051;-77
2022/04/30 02:15:20;;;;;;;14.88;8.38;;;5.60;99.90;;;;;;4954793;29;20044;-77
2022/04/30 02:17:49;;;;;;;18.23;8.50;;;5.60;99.90;;;;;;4953051;29;20098;-77
2022/04/30 02:20:18;;;;;;;14.43;7.65;;;5.60;99.90;;;;;;4940184;29;20046;-77
2022/04/30 02:22:45;;;;;;;15.68;7.72;;;5.60;99.90;;;;;;4945855;29;20103;-77
2022/04/30 02:25:13;;;;;;;13.98;6.95;;;5.60;99.90;;;;;;4953194;29;20476;-77
2022/04/30 02:27:40;;;;;;;14.05;7.07;;;5.60;99.90;;;;;;4954705;29;20061;-77
2022/04/30 02:30:08;;;;;;;14.68;7.63;;;5.60;99.90;;;;;;4949608;29;20502;-77
2022/04/30 02:32:49;;;;;;;13.63;7.30;;;5.60;99.90;;;;;;4946378;28;20146;-77
2022/04/30 02:35:20;;;;;;;15.18;8.35;;;5.60;99.90;;;;;;4951027;29;20039;-77
2022/04/30 02:37:50;;;;;;;14.30;8.07;;;5.60;99.90;;;;;;4942448;29;20414;-77
2022/04/30 02:40:17;;;;;;;15.40;7.55;;;5.60;99.90;;;;;;4944499;29;20120;-77
2022/04/30 02:42:44;;;;;;;13.80;7.80;;;5.60;99.90;;;;;;4946108;28;20082;-77
2022/04/30 02:45:14;;;;;;;12.85;7.32;;;5.60;99.90;;;;;;4944095;28;20040;-77
2022/04/30 02:47:41;;;;;;;18.63;8.05;;;5.60;99.90;;;;;;4940882;29;20046;-77
2022/04/30 02:50:08;;;;;;;20.50;7.72;;;5.60;99.90;;;;;;4950169;29;20085;-77
2022/04/30 02:52:35;;;;;;;13.63;6.82;;;5.60;99.90;;;;;;4945923;28;20047;-77
2022/04/30 02:55:00;;;;;;;19.52;7.80;;;5.60;99.90;;;;;;4954052;29;20071;-77
2022/04/30 02:57:38;;;;;;;16.48;7.53;;;5.60;99.90;;;;;;4954213;29;20426;-77
2022/04/30 03:00:06;;;;;;;13.52;7.95;;;5.60;99.90;;;;;;4948720;29;20506;-77
2022/04/30 03:02:31;;;;;;;12.45;7.57;;;5.60;99.90;;;;;;4948312;28;20050;-77
2022/04/30 03:04:57;;;;;;;12.45;7.25;;;5.60;99.90;;;;;;4954188;29;20043;-77
2022/04/30 03:07:22;;;;;;;10.48;6.57;;;5.60;99.90;;;;;;4953424;29;20569;-77
2022/04/30 03:09:49;;;;;;;11.25;7.10;;;5.60;99.90;;;;;;4964719;28;20154;-77
2022/04/30 03:12:15;;;;;;;15.15;8.43;;;5.60;99.90;;;;;;4945082;29;20051;-77
2022/04/30 03:14:42;;;;;;;10.07;5.97;;;5.60;99.90;;;;;;4943579;28;20227;-77
2022/04/30 03:22:38;;;;;;;12.32;7.05;;;5.60;99.90;;;;;;4942246;29;20415;-77
2022/04/30 03:25:04;;;;;;;12.13;6.70;;;5.60;99.90;;;;;;4926697;29;20047;-77
2022/04/30 03:27:31;;;;;;;10.85;7.00;;;5.50;99.90;;;;;;4953352;29;20049;-77
2022/04/30 03:29:57;;;;;;;11.90;6.45;;;5.50;99.90;;;;;;4954727;28;20079;-77
2022/04/30 03:32:24;;;;;;;15.48;7.65;;;5.50;99.90;;;;;;4946961;28;20086;-77
2022/04/30 03:34:52;;;;;;;13.60;7.70;;;5.50;99.90;;;;;;4953702;29;20047;-78
2022/04/30 03:37:18;;;;;;;10.73;6.90;;;5.50;99.90;;;;;;4953186;29;20035;-77
2022/04/30 03:39:44;;;;;;;11.73;7.00;;;5.50;99.90;;;;;;4948842;29;20106;-77
2022/04/30 03:42:09;;;;;;;12.55;6.60;;;5.50;99.90;;;;;;4943512;29;20039;-77
2022/04/30 03:44:35;;;;;;;15.15;8.10;;;5.50;99.90;;;;;;4940356;28;20394;-77
2022/04/30 03:47:01;;;;;;;12.50;6.90;;;5.50;99.90;;;;;;4941712;29;20078;-78
2022/04/30 03:49:26;;;;;;;15.20;7.55;;;5.40;99.90;;;;;;4933539;29;20035;-77
2022/04/30 03:51:54;;;;;;;11.23;6.60;;;5.40;99.90;;;;;;4940560;29;20483;-77
2022/04/30 03:54:20;;;;;;;11.02;6.68;;;5.40;99.90;;;;;;4952601;28;20047;-77
2022/04/30 03:56:46;;;;;;;11.23;6.57;;;5.40;99.90;;;;;;4952560;28;20050;-77
2022/04/30 03:59:11;;;;;;;11.70;6.30;;;5.40;99.90;;;;;;4952331;29;20114;-77
2022/04/30 04:01:38;;;;;;;12.35;7.60;;;5.30;99.90;;;;;;4946269;29;20134;-77
2022/04/30 04:04:04;;;;;;;13.40;7.20;;;5.30;99.90;;;;;;4935924;29;20040;-77
2022/04/30 04:06:31;;;;;;;13.43;6.78;;;5.30;99.90;;;;;;4933399;29;20048;-77
2022/04/30 04:08:59;;;;;;;15.57;6.18;;;5.40;99.90;;;;;;4940849;29;20063;-77
2022/04/30 04:11:26;;;;;;;11.55;6.57;;;5.40;99.90;;;;;;4943637;29;20062;-77
2022/04/30 04:19:22;;;;;;;11.02;5.57;;;5.40;99.90;;;;;;4952648;29;20055;-77
2022/04/30 04:21:47;;;;;;;11.35;6.60;;;5.40;99.90;;;;;;4940101;29;20071;-77
2022/04/30 04:27:02;;;;;;;10.93;6.18;;;5.30;99.90;;;;;;4934177;29;20130;-77
2022/04/30 04:29:27;;;;;;;14.02;7.63;;;5.30;99.90;;;;;;4936076;29;20051;-77
2022/04/30 04:31:53;;;;;;;11.52;6.88;;;5.40;99.90;;;;;;4951950;29;20090;-76
2022/04/30 04:34:19;;;;;;;12.48;7.22;;;5.40;99.90;;;;;;4933483;29;20417;-76
2022/04/30 04:36:44;;;;;;;12.05;6.97;;;5.50;99.90;;;;;;4932141;29;20586;-76
2022/04/30 04:39:12;;;;;;;11.07;6.38;;;5.50;99.90;;;;;;4940361;29;20051;-77
2022/04/30 04:41:39;;;;;;;10.27;6.85;;;5.50;99.90;;;;;;4940927;29;20040;-77
2022/04/30 04:44:04;;;;;;;12.10;7.40;;;5.50;99.90;;;;;;4961483;23;20044;-82
2022/04/30 04:46:31;;;;;;;11.68;6.30;;;5.50;99.90;;;;;;4943966;29;20127;-82
2022/04/30 04:48:56;;;;;;;12.10;7.10;;;5.60;99.90;;;;;;4959575;29;20047;-82
2022/04/30 04:51:22;;;;;;;15.32;6.60;;;5.60;99.90;;;;;;4944163;29;20050;-82
2022/04/30 04:53:47;;;;;;;9.75;6.00;;;5.70;99.90;;;;;;4956393;29;20081;-82
2022/04/30 04:56:13;;;;;;;11.85;6.50;;;5.70;99.90;;;;;;4960882;29;20081;-82
2022/04/30 04:58:40;;;;;;;10.13;6.18;;;5.70;99.90;;;;;;4946994;29;20047;-82
2022/04/30 05:01:06;;;;;;;13.00;6.70;;;5.80;99.90;;;;;;4949461;29;20043;-82
2022/04/30 05:03:32;;;;;;;14.30;7.60;;;5.80;99.90;;;;;;4950939;29;20070;-82
2022/04/30 05:05:57;;;;;;;13.43;6.97;;;5.90;99.90;;;;;;4937568;29;20445;-82
2022/04/30 05:08:23;;;;;;;11.93;5.80;;;5.90;99.90;;;;;;4961239;29;20104;-82
2022/04/30 05:10:49;;;;;;;8.63;5.93;;;6.00;99.90;;;;;;4953187;29;20226;-82
2022/04/30 05:13:15;;;;;;;7.78;5.47;;;6.00;99.90;;;;;;4953433;29;20111;-82
2022/04/30 05:15:41;;;;;;;8.23;5.00;;;6.10;99.90;;;;;;4959770;29;20043;-82
2022/04/30 05:18:07;;;;;;;12.68;5.35;;;6.10;99.90;;;;;;4944850;29;20039;-82
2022/04/30 05:20:33;;;;;;;11.80;6.60;;;6.10;99.90;;;;;;4952433;29;20043;-82
2022/04/30 05:22:59;;;;;;;10.40;6.10;;;6.20;99.90;;;;;;4953122;29;20039;-82
2022/04/30 05:25:25;;;;;;;13.68;6.78;;;6.20;99.90;;;;;;4959641;29;20604;-82
2022/04/30 05:27:50;;;;;;;10.48;6.60;;;6.30;99.90;;;;;;4949578;29;20044;-82
2022/04/30 05:30:16;;;;;;;9.55;5.95;;;6.40;99.90;;;;;;4947014;29;20043;-83
2022/04/30 05:32:42;;;;;;;8.63;5.32;;;6.40;99.90;;;;;;4935669;29;20082;-82
2022/04/30 05:35:07;;;;;;;11.57;5.82;;;6.50;99.90;;;;;;4959785;29;20074;-83
2022/04/30 05:37:33;;;;;;;10.57;6.32;;;6.60;99.90;;;;;;4960209;29;20039;-83
2022/04/30 05:39:58;;;;;;;10.63;5.55;;;6.60;99.90;;;;;;4953420;29;20043;-83
2022/04/30 05:42:24;;;;;;;9.18;5.85;;;6.70;99.90;;;;;;4957061;29;20035;-83
2022/04/30 05:44:50;;;;;;;9.25;6.03;;;6.70;99.90;;;;;;4960226;29;20042;-81
2022/04/30 05:47:18;;;;;;;7.03;4.80;;;6.80;99.90;;;;;;4944259;29;20043;-81
2022/04/30 05:49:44;;;;;;;8.10;5.55;;;6.90;99.90;;;;;;4951359;29;20541;-81
2022/04/30 05:52:11;;;;;;;10.02;5.55;;;6.90;99.90;;;;;;4932509;29;20040;-81
2022/04/30 05:54:37;;;;;;;8.75;5.88;;;7.00;99.90;;;;;;4947989;29;20120;-81
2022/04/30 05:57:03;;;;;;;7.78;5.60;;;7.10;99.90;;;;;;4948530;29;20079;-82
2022/04/30 05:59:28;;;;;;;8.55;6.07;;;7.20;99.90;;;;;;4946420;29;20055;-82
2022/04/30 06:01:54;;;;;;;9.73;6.60;;;7.30;99.90;;;;;;4947203;29;20119;-82
2022/04/30 06:04:21;;;;;;;8.57;5.45;;;7.40;99.90;;;;;;4939789;29;20067;-82
2022/04/30 06:06:46;;;;;;;8.18;5.35;;;7.50;99.90;;;;;;4940136;29;20498;-82
2022/04/30 06:09:12;;;;;;;9.75;5.63;;;7.60;99.90;;;;;;4938729;29;20265;-82
2022/04/30 06:11:39;;;;;;;10.13;5.57;;;7.70;99.90;;;;;;4929126;29;20035;-82
2022/04/30 06:14:05;;;;;;;7.05;4.40;;;7.80;99.90;;;;;;4941946;29;20044;-82
2022/04/30 06:16:30;;;;;;;10.30;5.82;;;7.90;99.90;;;;;;4954378;29;20039;-82
2022/04/30 06:18:56;;;;;;;8.35;4.53;;;8.00;99.90;;;;;;4955627;28;20035;-83
2022/04/30 06:21:23;;;;;;;10.73;7.05;;;8.10;99.90;;;;;;4947173;29;20039;-83
2022/04/30 06:23:49;;;;;;;15.82;7.72;;;8.20;99.90;;;;;;4941549;29;20418;-82
2022/04/30 06:26:15;;;;;;;9.05;5.78;;;8.30;99.90;;;;;;4961846;29;20065;-83
2022/04/30 06:28:40;;;;;;;11.88;5.53;;;8.40;99.90;;;;;;4959668;29;20046;-82
2022/04/30 06:31:06;;;;;;;7.82;5.68;;;8.50;99.90;;;;;;4951541;29;20039;-83
2022/04/30 06:33:32;;;;;;;12.25;6.45;;;8.70;99.90;;;;;;4944694;29;20047;-83
2022/04/30 06:35:58;;;;;;;7.97;5.68;;;8.80;99.90;;;;;;4940062;29;20036;-83
2022/04/30 06:38:23;;;;;;;8.43;5.28;;;9.00;99.90;;;;;;4940928;29;20047;-82
2022/04/30 06:40:49;;;;;;;8.18;4.85;;;9.20;99.90;;;;;;4923435;29;20031;-83
2022/04/30 06:43:15;;;;;;;7.97;5.22;;;9.50;99.90;;;;;;4939588;28;20405;-83
2022/04/30 06:45:40;;;;;;;8.20;5.20;;;9.70;99.90;;;;;;4949010;29;20043;-83
2022/04/30 06:48:06;;;;;;;10.23;5.22;;;9.80;99.90;;;;;;4929712;29;20053;-82
2022/04/30 06:50:32;;;;;;;9.32;4.65;;;9.90;99.90;;;;;;4945185;29;20039;-83
2022/04/30 06:58:26;;;;;;;4.93;3.33;;;10.30;99.90;;;;;;4954704;29;20490;-82
2022/04/30 07:03:26;;;;;;;7.18;3.30;;;10.50;99.90;;;;;;4938172;29;20048;-82
2022/04/30 07:05:52;;;;;;;4.65;3.75;;;10.60;99.90;;;;;;4935715;29;20047;-82
2022/04/30 07:08:18;;;;;;;10.60;3.97;;;10.70;99.90;;;;;;4935917;29;20080;-83
2022/04/30 07:10:44;;;;;;;6.03;3.63;;;10.70;99.90;;;;;;4941433;29;20455;-82
2022/04/30 07:13:09;;;;;;;6.32;3.42;;;10.80;99.90;;;;;;4920748;29;20502;-83
2022/04/30 07:15:35;;;;;;;7.50;3.05;;;10.80;99.90;;;;;;4943466;29;20103;-83
2022/04/30 07:18:00;;;;;;;7.32;3.55;;;10.90;99.90;;;;;;4926049;29;20148;-84
2022/04/30 07:20:26;;;;;;;6.00;3.10;;;11.10;99.90;;;;;;4929310;29;20067;-83
2022/04/30 07:22:52;;;;;;;3.65;2.45;;;11.10;99.90;;;;;;4920701;29;20039;-83
2022/04/30 07:25:18;;;;;;;4.97;2.70;;;11.30;99.90;;;;;;4921280;29;20582;-84
2022/04/30 07:27:43;;;;;;;3.45;2.70;;;11.40;99.90;;;;;;4925891;29;20083;-84
2022/04/30 07:30:09;;;;;;;5.13;3.25;;;11.40;99.90;;;;;;4934145;29;20044;-84
2022/04/30 07:32:35;;;;;;;6.40;4.72;;;11.50;99.90;;;;;;4940101;29;20046;-83
2022/04/30 07:35:00;;;;;;;7.30;2.88;;;11.50;99.90;;;;;;4942414;29;20138;-83
2022/04/30 07:37:26;;;;;;;4.43;3.22;;;11.40;99.90;;;;;;4935513;29;20634;-83
2022/04/30 07:39:51;;;;;;;6.28;3.55;;;11.40;99.90;;;;;;4944233;29;20039;-82
2022/04/30 07:42:17;;;;;;;5.50;2.90;;;11.30;99.90;;;;;;4943222;29;20486;-83
2022/04/30 07:44:42;;;;;;;6.03;3.45;;;11.30;99.90;;;;;;4923095;29;20040;-82
2022/04/30 07:47:08;;;;;;;6.85;4.65;;;11.40;99.90;;;;;;4933954;29;20498;-82
2022/04/30 07:49:34;;;;;;;4.97;3.08;;;11.50;99.90;;;;;;4938355;29;20084;-83
2022/04/30 07:52:00;;;;;;;6.13;3.05;;;11.50;99.90;;;;;;4911785;29;20036;-83
2022/04/30 07:54:26;;;;;;;8.55;5.38;;;11.70;99.90;;;;;;4937573;29;20043;-83
2022/04/30 07:56:56;;;;;;;116.20;85.38;;;11.70;99.90;;;;;;4948751;29;20039;-83
2022/04/30 07:59:22;;;;;;;42.20;27.20;;;11.70;99.90;;;;;;4952823;29;20043;-83
2022/04/30 08:01:49;;;;;;;69.63;44.47;;;11.90;99.90;;;;;;4941345;29;20039;-83
2022/04/30 08:04:15;;;;;;;175.48;119.05;;;12.00;99.90;;;;;;4939843;29;20493;-83
2022/04/30 08:06:40;;;;;;;41.40;25.85;;;12.30;99.90;;;;;;4933852;29;20054;-82
2022/04/30 08:09:06;;;;;;;24.52;17.77;;;12.50;99.90;;;;;;4942256;29;20083;-83
2022/04/30 08:11:31;;;;;;;9.55;5.03;;;12.50;99.90;;;;;;4924454;29;20170;-83
2022/04/30 08:13:57;;;;;;;5.78;3.75;;;12.50;99.90;;;;;;4939248;29;20046;-84
2022/04/30 08:16:23;;;;;;;6.65;4.30;;;12.50;99.90;;;;;;4927782;29;20035;-83
2022/04/30 08:18:49;;;;;;;7.60;2.85;;;12.60;99.90;;;;;;4937953;29;20039;-84
2022/04/30 08:21:15;;;;;;;6.60;3.03;;;12.70;99.90;;;;;;4931521;29;20058;-82
2022/04/30 08:23:40;;;;;;;5.45;3.35;;;12.70;99.90;;;;;;4944783;29;20035;-82
2022/04/30 08:26:06;;;;;;;4.53;2.72;;;12.50;99.90;;;;;;4935015;29;20508;-80
2022/04/30 08:28:31;;;;;;;7.18;3.35;;;12.30;99.90;;;;;;4943728;29;20043;-82
2022/04/30 08:30:58;;;;;;;7.90;4.07;;;12.40;99.90;;;;;;4943312;29;20039;-82
2022/04/30 08:33:24;;;;;;;4.80;3.20;;;12.40;99.90;;;;;;4944697;29;20047;-82
2022/04/30 08:35:49;;;;;;;4.97;3.13;;;12.50;99.90;;;;;;4948919;29;20398;-82
2022/04/30 08:38:15;;;;;;;8.85;3.50;;;12.60;99.90;;;;;;4925207;29;20039;-82
2022/04/30 08:40:43;;;;;;;5.80;3.33;;;12.80;99.90;;;;;;4941932;29;20457;-82
2022/04/30 08:43:14;;;;;;;5.78;3.97;;;12.90;99.90;;;;;;4950910;28;20043;-81
2022/04/30 08:45:41;;;;;;;6.32;3.40;;;13.00;99.90;;;;;;4956202;29;20051;-81
2022/04/30 08:48:07;;;;;;;7.43;3.17;;;13.00;99.90;;;;;;4941508;29;20043;-81
2022/04/30 08:50:33;;;;;;;4.85;3.05;;;13.20;99.90;;;;;;4931496;29;20073;-81
2022/04/30 08:52:59;;;;;;;6.03;3.40;;;13.40;99.90;;;;;;4942234;29;20498;-81
2022/04/30 08:55:24;;;;;;;6.15;3.17;;;13.50;99.90;;;;;;4957145;29;20497;-81
2022/04/30 08:57:51;;;;;;;6.47;3.90;;;13.50;99.90;;;;;;4949078;29;20032;-80
2022/04/30 09:00:16;;;;;;;6.72;3.38;;;13.40;98.30;;;;;;4938410;29;20040;-81
2022/04/30 09:02:50;;;;;;;6.43;3.50;;;13.20;97.80;;;;;;4938154;29;20049;-80
2022/04/30 09:05:15;;;;;;;12.55;7.80;;;13.20;98.60;;;;;;4945217;29;20061;-80
2022/04/30 09:07:41;;;;;;;34.63;18.08;;;13.30;98.60;;;;;;4943739;29;20051;-79
2022/04/30 09:10:07;;;;;;;21.67;11.45;;;13.20;96.70;;;;;;4938472;29;20032;-80
2022/04/30 09:12:33;;;;;;;87.55;52.47;;;13.20;96.20;;;;;;4948659;29;20035;-80
2022/04/30 09:14:59;;;;;;;11.63;7.13;;;13.20;96.70;;;;;;4956119;29;20051;-80
2022/04/30 09:17:28;;;;;;;69.00;42.17;;;13.20;96.00;;;;;;4954957;29;20046;-79
2022/04/30 09:19:56;;;;;;;23.58;16.08;;;13.40;95.70;;;;;;4950174;29;20067;-80
2022/04/30 09:22:34;;;;;;;5.97;3.95;;;13.40;94.70;;;;;;4935085;29;20053;-79
2022/04/30 09:25:05;;;;;;;3.17;2.55;;;13.30;94.10;;;;;;4948766;29;20525;-79
2022/04/30 09:27:32;;;;;;;4.32;2.28;;;13.30;95.00;;;;;;4958225;29;20088;-80
2022/04/30 09:29:58;;;;;;;4.03;3.60;;;13.40;93.90;;;;;;4956283;29;20122;-79
2022/04/30 09:32:27;;;;;;;9.40;2.60;;;13.30;93.60;;;;;;4945184;29;20581;-80
2022/04/30 09:37:49;;;;;;;6.57;2.90;;;13.30;93.20;;;;;;4937642;29;20048;-80
2022/04/30 09:40:14;;;;;;;3.13;2.60;;;13.30;92.80;;;;;;4939251;29;20043;-80
2022/04/30 09:42:46;;;;;;;6.35;2.97;;;13.30;91.60;;;;;;4938400;29;20203;-80
2022/04/30 09:45:27;;;;;;;4.50;2.85;;;13.30;90.70;;;;;;4937189;29;20050;-79
2022/04/30 09:47:54;;;;;;;7.63;2.47;;;13.50;90.40;;;;;;4919370;29;20040;-79
2022/04/30 09:55:55;;;;;;;3.17;2.20;;;14.10;89.40;;;;;;4960637;29;20044;-79
2022/04/30 09:58:26;;;;;;;3.72;2.65;;;14.40;89.00;;;;;;4961237;29;20083;-80
2022/04/30 10:00:58;;;;;;;3.20;2.38;;;15.00;89.30;;;;;;4954588;29;20050;-79
2022/04/30 10:03:28;;;;;;;6.93;3.30;;;15.60;84.30;;;;;;4937938;29;20123;-78
2022/04/30 10:06:05;;;;;;;2.90;1.88;;;15.70;82.40;;;;;;4956944;29;20069;-81
2022/04/30 10:08:39;;;;;;;2.67;1.40;;;15.50;77.50;;;;;;4962344;29;20083;-79
2022/04/30 10:11:37;;;;;;;4.78;2.33;;;15.20;78.20;;;;;;4942940;29;20070;-79
2022/04/30 10:14:09;;;;;;;4.40;2.28;;;15.10;75.60;;;;;;4959645;29;20394;-79
2022/04/30 10:16:34;;;;;;;6.32;2.67;;;14.70;79.10;;;;;;4950599;29;20064;-79
2022/04/30 10:19:15;;;;;;;2.20;1.85;;;14.30;79.50;;;;;;4958158;29;20438;-78
2022/04/30 10:21:41;;;;;;;4.28;2.85;;;14.00;79.00;;;;;;4960750;29;20040;-79
2022/04/30 10:24:09;;;;;;;6.63;2.75;;;13.80;80.60;;;;;;4959122;29;20054;-79
2022/04/30 10:26:35;;;;;;;3.13;2.38;;;13.50;82.60;;;;;;4958722;29;20075;-79
2022/04/30 10:29:13;;;;;;;4.75;2.60;;;13.40;83.10;;;;;;4941955;29;20039;-78
2022/04/30 10:31:45;;;;;;;19.77;3.75;;;13.40;83.30;;;;;;4935616;29;20392;-78
2022/04/30 10:34:12;;;;;;;4.28;2.72;;;13.40;84.40;;;;;;4939990;29;20050;-77
2022/04/30 10:36:39;;;;;;;5.07;3.35;;;13.40;84.00;;;;;;4943073;29;20044;-77
2022/04/30 10:39:09;;;;;;;4.50;2.60;;;13.50;84.40;;;;;;4941650;29;20097;-77
2022/04/30 10:41:42;;;;;;;2.85;2.25;;;13.50;84.60;;;;;;4922521;29;20403;-78
2022/04/30 10:44:08;;;;;;;4.20;2.60;;;13.50;83.60;;;;;;4952791;28;20074;-77
2022/04/30 10:46:39;;;;;;;7.85;3.08;;;13.60;85.00;;;;;;4944947;29;20051;-77
2022/04/30 10:49:06;;;;;;;5.18;2.88;;;13.60;84.70;;;;;;4942937;29;20043;-77
2022/04/30 10:51:43;;;;;;;3.33;2.70;;;13.60;85.10;;;;;;4954137;29;20051;-78
2022/04/30 10:54:11;;;;;;;3.47;2.25;;;13.50;84.10;;;;;;4953767;29;20066;-77
2022/04/30 10:56:39;;;;;;;4.28;2.17;;;13.40;84.80;;;;;;4953636;29;20042;-78
2022/04/30 10:59:06;;;;;;;6.95;2.20;;;13.40;84.60;;;;;;4950730;28;20398;-78
2022/04/30 11:01:32;;;;;;;4.95;2.42;;;13.40;84.10;;;;;;4935733;29;20313;-78
2022/04/30 11:03:58;;;;;;;3.42;2.17;;;13.30;84.40;;;;;;4934697;29;20335;-77
2022/04/30 11:06:25;;;;;;;7.00;2.63;;;13.30;85.00;;;;;;4933448;29;20043;-78
2022/04/30 11:08:58;;;;;;;2.72;2.30;;;13.30;84.40;;;;;;4934401;29;20067;-78
2022/04/30 11:11:23;;;;;;;4.65;2.30;;;13.20;83.70;;;;;;4934552;29;20553;-77
2022/04/30 11:13:59;;;;;;;3.65;3.17;;;13.20;84.90;;;;;;4934203;29;20087;-78
2022/04/30 11:16:33;;;;;;;5.35;2.28;;;13.30;84.70;;;;;;4948279;29;20043;-79
2022/04/30 11:19:05;;;;;;;4.03;2.55;;;13.30;83.30;;;;;;4953282;29;20118;-79
2022/04/30 11:21:35;;;;;;;3.90;2.28;;;13.30;84.30;;;;;;4953562;29;20043;-78
2022/04/30 11:24:03;;;;;;;3.72;2.25;;;13.50;84.30;;;;;;4953628;29;20401;-78
2022/04/30 11:26:30;;;;;;;4.18;2.45;;;13.60;83.30;;;;;;4952146;29;20043;-78
2022/04/30 11:28:56;;;;;;;2.63;2.20;;;13.70;82.50;;;;;;4952427;29;20083;-79
2022/04/30 11:31:22;;;;;;;3.47;2.47;;;13.80;82.40;;;;;;4953126;29;20043;-79
2022/04/30 11:33:48;;;;;;;7.35;1.67;;;13.90;82.70;;;;;;4952969;29;20051;-79
2022/04/30 11:36:14;;;;;;;4.03;1.83;;;14.00;82.40;;;;;;4953133;29;20047;-79
2022/04/30 11:38:48;;;;;;;3.72;2.47;;;14.20;82.10;;;;;;4953212;29;20105;-78
2022/04/30 11:41:14;;;;;;;6.60;2.97;;;14.20;81.50;;;;;;4937105;29;20043;-78
2022/04/30 11:43:39;;;;;;;3.03;2.05;;;14.20;81.80;;;;;;4937455;29;20470;-79
2022/04/30 11:46:05;;;;;;;3.47;2.40;;;14.20;81.90;;;;;;4952496;29;20070;-78
2022/04/30 11:48:39;;;;;;;4.57;3.40;;;14.30;81.90;;;;;;4953224;29;20047;-78
2022/04/30 11:51:06;;;;;;;4.65;3.60;;;14.40;81.00;;;;;;4937080;29;20050;-78
2022/04/30 11:53:33;;;;;;;5.03;2.50;;;14.40;81.30;;;;;;4953049;29;20047;-78
2022/04/30 11:55:59;;;;;;;4.60;2.33;;;14.40;81.70;;;;;;4954567;29;20055;-79
2022/04/30 11:58:25;;;;;;;2.83;2.40;;;14.50;80.20;;;;;;4937316;29;20040;-78
2022/04/30 12:00:53;;;;;;;4.57;2.17;;;14.50;79.80;;;;;;4946844;29;20118;-78
2022/04/30 12:03:28;;;;;;;7.47;3.35;;;14.40;79.30;;;;;;4952800;29;20046;-79
2022/04/30 12:05:55;;;;;;;5.60;2.95;;;14.50;78.60;;;;;;4953037;29;20406;-78
2022/04/30 12:08:27;;;;;;;4.22;2.10;;;14.30;79.90;;;;;;4954954;29;20454;-79
2022/04/30 12:10:58;;;;;;;4.32;2.22;;;14.30;77.90;;;;;;4954626;29;20051;-79
2022/04/30 12:13:24;;;;;;;6.07;2.10;;;14.30;77.50;;;;;;4943837;29;20091;-79
2022/04/30 12:16:03;;;;;;;3.45;2.33;;;14.50;78.10;;;;;;4950254;29;20371;-78
2022/04/30 12:27:02;;;;;;;3.42;1.85;;;14.90;75.00;;;;;;4917249;29;20407;-78
2022/04/30 12:29:28;;;;;;;6.13;2.30;;;14.80;71.90;;;;;;4935828;29;20305;-79
2022/04/30 12:31:53;;;;;;;1.88;1.10;;;14.80;72.50;;;;;;4951864;29;20055;-79
2022/04/30 12:34:21;;;;;;;2.92;0.95;;;14.70;71.70;;;;;;4952238;29;20043;-79
2022/04/30 12:36:57;;;;;;;5.32;2.15;;;14.60;71.80;;;;;;4951921;29;20046;-79
2022/04/30 12:39:24;;;;;;;5.20;1.77;;;14.40;71.10;;;;;;4936099;29;20043;-79
2022/04/30 12:41:54;;;;;;;2.30;0.88;;;14.30;71.60;;;;;;4952029;29;20095;-79
2022/04/30 12:44:23;;;;;;;3.95;1.85;;;14.20;71.30;;;;;;4952242;29;20059;-79
2022/04/30 12:46:49;;;;;;;3.83;1.77;;;14.20;70.60;;;;;;4946859;29;20485;-79
2022/04/30 12:49:15;;;;;;;3.38;1.42;;;14.20;72.10;;;;;;4937372;29;20096;-79
2022/04/30 12:51:42;;;;;;;3.13;1.33;;;14.30;71.70;;;;;;4954720;29;20071;-79
2022/04/30 12:54:16;;;;;;;2.40;2.05;;;14.30;71.80;;;;;;4954023;29;20044;-79
2022/04/30 12:56:43;;;;;;;3.45;2.03;;;14.30;72.70;;;;;;4954257;29;20103;-79
2022/04/30 12:59:09;;;;;;;2.92;1.85;;;14.20;73.10;;;;;;4954534;29;20047;-80
2022/04/30 13:01:35;;;;;;;4.22;2.22;;;14.20;72.80;;;;;;4953748;29;20471;-79
2022/04/30 13:04:01;;;;;;;2.28;1.73;;;14.20;72.70;;;;;;4953669;29;20152;-79
2022/04/30 13:06:29;;;;;;;2.83;1.02;;;14.30;72.70;;;;;;4953969;29;20405;-80
2022/04/30 13:14:23;;;;;;;3.10;1.33;;;14.70;69.90;;;;;;4934842;29;20097;-79
2022/04/30 13:16:50;;;;;;;2.72;1.70;;;14.70;70.40;;;;;;4918370;29;20459;-80
2022/04/30 13:19:15;;;;;;;4.22;1.60;;;14.80;70.70;;;;;;4940544;29;20036;-80
2022/04/30 13:21:41;;;;;;;5.28;1.85;;;14.90;70.70;;;;;;4953622;29;20039;-79
2022/04/30 13:24:07;;;;;;;5.68;1.58;;;14.90;71.10;;;;;;4942727;29;20074;-80
2022/04/30 13:26:33;;;;;;;4.68;1.48;;;14.80;70.30;;;;;;4937574;29;20130;-80
2022/04/30 13:28:59;;;;;;;3.03;1.58;;;14.90;70.00;;;;;;4937864;29;20056;-79
2022/04/30 13:31:25;;;;;;;2.25;1.23;;;14.90;69.60;;;;;;4940678;29;20414;-80
2022/04/30 13:33:50;;;;;;;2.72;1.45;;;14.90;70.10;;;;;;4939649;29;20044;-80
2022/04/30 13:36:16;;;;;;;2.20;1.38;;;15.00;70.00;;;;;;4938417;29;20525;-79